AirNav   Advertisement
 
 946 users online  

HI22 Tinian Heliport
San Jose, Tinian, Northern Mariana Is


FAA INFORMATION EFFECTIVE 20 JULY 2017

Location

FAA Identifier: HI22
Lat/Long: 14-57-36.0000N / 145-37-35.0000E
14-57.600000N / 145-37.583333E
14.9600000 / 145.6263889
(estimated)
Elevation: 75 ft. / 23 m (estimated)
Variation: 01E (1990)
From city: 4 miles S of SAN JOSE, TINIAN, CQ
Time zone: UTC +10 (year round; does not observe DST)

Heliport Operations

Heliport use: Private use, PERSONAL USE.
Activation date: 06/1992
Control tower: no
ARTCC: HONOLULU CONTROL FACILITY CENTER
FSS: HONOLULU FLIGHT SERVICE STATION
Attendance: UNATNDD
Segmented circle: no

Heliport Communications

WX ASOS at GSN (11 nm NE): PHONE 670-288-5017

Nearby radio navigation aids

NDB name  Hdg/Dist  Freq  Var  ID
SAIPAN206/10.331202ESN ... -.

Heliport Services

Runway Information

Helipad H1

Dimensions: 200 x 200 ft. / 61 x 61 m
Surface: turf
Traffic pattern: leftleft

Heliport Ownership and Management from official FAA records

Ownership: Privately-owned
Owner: AMERICOPTERS
7688 SVRB
SAIPAN, MP 96950
Phone 670-234-1304
Manager: KENNETH RUFUS CROWE
7688 SVRB
SAIPAN, MP 96950
Phone 670-234-1304

Heliport Operational Statistics

Aircraft based on the field: 4
Helicopters: 4
    

Instrument Procedures

There are no published instrument procedures at HI22.

Some nearby airports with instrument procedures:

PGWT - Tinian International Airport (2 nm N)
PGSN - Francisco C Ada/Saipan International Airport (11 nm NE)
PGRO - Benjamin Taisacan Manglona International Airport (52 nm SW)
 
Loc | Ops | Rwys | IFR | FBO | Links
Com | Nav | Svcs | Stats | Notes


 
Area around HI22 (Tinian Heliport)
 
Road maps at: MapQuest Bing Google
 
Aerial photo
No photo
 
Airport distance calculator
Flying to Tinian Heliport? Find the distance to fly.

From to HI22

Sunrise and sunset
Times for 24-Jul-2017
 Local
(UTC+10)
 Zulu
(UTC)
Morning civil twilight05:3619:36
Sunrise05:5919:59
Sunset18:4908:49
Evening civil twilight19:1209:12

Current date and time
Zulu (UTC)  23-Jul-2017 23:32:27
Local (UTC+10)  24-Jul-2017 09:32:27
 
METAR
PGWT 
2nm N 
232250Z 17008KT 7SM SCT016 SCT100 BKN180 30/26 A2980
PGSN 
11nm NE 
232254Z 17009KT 10SM SCT015 BKN100 32/26 A2982 RMK AO2 SLP116 T03170261 $
TAF
PGWT 
2nm N 
232014Z 2320/2418 14008KT P6SM VCSH SCT016 BKN140
PGSN 
11nm NE 
231720Z 2318/2418 14008KT P6SM VCSH SCT020 BKN110
NOTAMs
Click for the latest NOTAMs
NOTAMs are issued by the DoD/FAA and will open in a separate window not controlled by AirNav.

 

 
 

Would you like to see your business listed on this page?

 If your business provides an interesting product or service to pilots, flight crews, aircraft, or users of the Tinian Heliport, you should consider listing it here.  To start the listing process, click on the button below
 
Add a business
 

Other Pages about Tinian Heliport

Update a link
 
Copyright © AirNav, LLC. All rights reserved. Privacy Policy  Contact